Hankinson, North Dakota
Current Conditions -  °F | °C
As of 8:35 PM on Thursday 20 Nov 2014 (Local Time) from KBWP Reporting Station
Clear Clear  
Wind Chill: -3°   Ceiling: Unl
Heat Index:   Visibility: 10mi
Dew Point:   Wind: 6mph
Humidity: 79%   Direction: 150°SSE
Pressure: 30.15"   Gusts: NA
Location:  46.07°N, 96.9°W
Report Text: KBWP 210235Z AUTO 15005KT 10SM CLR M14/M17 A3015 RMK AO1
Loading
Personal Weather Stations






























Interactive Weather Map New forecast layout! Learn more

10-Day Weather Forecast

Advertisements
Track Severe Weather on mobile